Time;durP1;ratioP1;P1;durP2;ratioP2;P2;SDS_P1;SDS_P2;PMS_P1;PMS_P2;Temp;Humidity;BMP_temperature;BMP_pressure;BME280_temperature;BME280_humidity;BME280_pressure;Samples;Min_cycle;Max_cycle;Signal;HPM_P1;HPM_P2
2023/05/05 00:00:42;;;;;;;2.05;1.80;;;8.40;99.90;;;;;;5110111;28;20046;-68
2023/05/05 00:03:16;;;;;;;1.85;1.73;;;8.40;99.90;;;;;;5130785;28;20038;-72
2023/05/05 00:05:48;;;;;;;2.08;1.80;;;8.40;99.90;;;;;;5096398;28;20073;-71
2023/05/05 00:08:21;;;;;;;2.20;2.00;;;8.30;99.90;;;;;;5107115;28;20047;-71
2023/05/05 00:10:56;;;;;;;2.30;1.77;;;8.30;99.90;;;;;;5111320;29;20355;-66
2023/05/05 00:13:30;;;;;;;3.15;1.45;;;8.20;99.90;;;;;;5095679;29;20652;-70
2023/05/05 00:16:02;;;;;;;1.83;1.20;;;8.10;99.90;;;;;;5094522;29;20526;-73
2023/05/05 00:18:34;;;;;;;1.48;1.38;;;8.10;99.90;;;;;;5098022;28;20049;-66
2023/05/05 00:21:08;;;;;;;2.47;1.38;;;8.10;99.90;;;;;;5099054;28;20039;-68
2023/05/05 00:23:45;;;;;;;2.33;1.40;;;8.10;99.90;;;;;;5094783;29;20055;-71
2023/05/05 00:26:18;;;;;;;2.05;1.67;;;8.10;99.90;;;;;;5112450;29;20031;-67
2023/05/05 00:28:53;;;;;;;2.08;1.88;;;8.10;99.90;;;;;;5125833;28;20062;-66
2023/05/05 00:31:24;;;;;;;3.00;2.00;;;8.10;99.90;;;;;;5097615;29;20043;-71
2023/05/05 00:33:58;;;;;;;1.90;1.50;;;8.10;1.00;;;;;;5097107;29;20591;-69
2023/05/05 00:36:32;;;;;;;1.90;1.75;;;8.00;99.90;;;;;;5112526;28;20039;-69
2023/05/05 00:39:03;;;;;;;1.58;1.48;;;8.00;99.90;;;;;;5098911;28;20081;-70
2023/05/05 00:41:41;;;;;;;1.88;1.73;;;8.00;99.90;;;;;;5106941;29;20062;-70
2023/05/05 00:44:32;;;;;;;1.90;1.73;;;8.10;1.00;;;;;;5098889;28;20052;-71
2023/05/05 00:47:08;;;;;;;1.40;1.30;;;8.00;99.90;;;;;;5092717;29;20532;-69
2023/05/05 00:49:43;;;;;;;2.00;1.85;;;8.00;1.00;;;;;;5075963;29;20043;-70
2023/05/05 00:52:15;;;;;;;1.90;1.80;;;8.00;1.00;;;;;;5092668;29;20043;-69
2023/05/05 00:54:49;;;;;;;2.60;1.85;;;7.90;1.00;;;;;;5091318;29;20047;-73
2023/05/05 00:57:23;;;;;;;1.85;1.70;;;7.80;1.00;;;;;;5098937;29;20047;-71
2023/05/05 01:00:01;;;;;;;8.13;1.90;;;7.70;1.00;;;;;;5094658;29;20621;-68
2023/05/05 01:02:35;;;;;;;1.70;1.60;;;7.60;1.00;;;;;;5206878;23;20042;-67
2023/05/05 01:05:09;;;;;;;2.20;2.03;;;7.50;1.00;;;;;;5109786;28;20054;-69
2023/05/05 01:08:04;;;;;;;2.53;1.58;;;7.50;1.00;;;;;;5123135;28;20459;-74
2023/05/05 01:11:01;;;;;;;1.65;1.55;;;7.50;1.00;;;;;;5096688;28;20236;-73
2023/05/05 01:14:31;;;;;;;2.42;1.83;;;7.50;1.00;;;;;;5115542;28;20041;-70
2023/05/05 01:17:19;;;;;;;1.73;1.60;;;7.40;1.00;;;;;;5056986;29;20062;-71
2023/05/05 01:20:24;;;;;;;1.70;1.60;;;7.40;1.00;;;;;;5090678;29;20039;-66
2023/05/05 01:23:03;;;;;;;2.67;1.85;;;7.30;1.00;;;;;;5090232;29;20620;-68
2023/05/05 01:26:01;;;;;;;3.38;2.42;;;7.30;1.00;;;;;;5090068;28;20052;-69
2023/05/05 01:29:12;;;;;;;2.70;1.80;;;7.30;1.00;;;;;;5085717;29;20267;-69
2023/05/05 01:32:09;;;;;;;2.90;1.17;;;7.30;1.00;;;;;;5088376;29;20036;-70
2023/05/05 01:35:14;;;;;;;1.75;1.63;;;7.20;1.00;;;;;;5053776;29;20066;-71
2023/05/05 01:37:59;;;;;;;1.95;1.80;;;7.20;1.00;;;;;;5086807;29;20284;-70
2023/05/05 01:40:43;;;;;;;1.45;1.10;;;7.10;1.00;;;;;;5089027;29;20039;-68
2023/05/05 01:43:18;;;;;;;4.55;2.42;;;7.00;1.00;;;;;;5064662;29;20036;-73
2023/05/05 01:45:52;;;;;;;1.88;1.75;;;7.00;1.00;;;;;;5038554;29;20419;-69
2023/05/05 01:48:25;;;;;;;2.30;2.08;;;7.00;1.00;;;;;;5058989;29;20043;-69
2023/05/05 01:51:01;;;;;;;1.45;1.35;;;6.90;1.00;;;;;;5088107;29;20035;-72
2023/05/05 01:53:38;;;;;;;2.20;1.60;;;6.90;1.00;;;;;;5112330;28;20042;-71
2023/05/05 01:56:17;;;;;;;2.60;2.17;;;6.90;1.00;;;;;;5100805;28;20048;-71
2023/05/05 01:58:53;;;;;;;2.72;1.77;;;6.90;1.00;;;;;;5097949;28;20467;-71
2023/05/05 02:01:27;;;;;;;2.13;1.42;;;6.90;1.00;;;;;;5129297;28;20040;-66
2023/05/05 02:04:08;;;;;;;1.85;1.75;;;6.80;1.00;;;;;;5119120;28;20061;-72
2023/05/05 02:06:44;;;;;;;2.17;1.50;;;6.80;1.00;;;;;;5113918;28;20061;-71
2023/05/05 02:09:22;;;;;;;1.85;1.75;;;6.80;1.00;;;;;;5143580;28;20520;-70
2023/05/05 02:11:57;;;;;;;5.43;1.75;;;6.70;24.20;;;;;;5101743;28;20061;-70
2023/05/05 02:14:29;;;;;;;1.80;1.40;;;6.70;1.00;;;;;;5115871;28;20068;-70
2023/05/05 02:17:02;;;;;;;2.38;1.63;;;6.60;1.00;;;;;;5117336;28;20034;-69
2023/05/05 02:19:41;;;;;;;2.97;1.90;;;6.70;1.00;;;;;;5101347;28;20645;-69
2023/05/05 02:22:22;;;;;;;1.80;1.67;;;6.70;1.00;;;;;;5118124;28;20031;-70
2023/05/05 02:24:56;;;;;;;3.40;1.73;;;6.60;1.00;;;;;;5135147;28;20038;-73
2023/05/05 02:27:31;;;;;;;1.58;1.48;;;6.70;1.00;;;;;;5146357;28;20038;-71
2023/05/05 02:30:13;;;;;;;2.40;2.03;;;6.70;1.00;;;;;;5102199;28;20054;-72
2023/05/05 02:32:58;;;;;;;1.65;1.55;;;6.70;1.00;;;;;;5123312;28;20230;-67
2023/05/05 02:35:42;;;;;;;;;;;6.70;1.00;;;;;;5115115;28;20070;-72
2023/05/05 02:38:20;;;;;;;2.33;1.70;;;6.80;1.00;;;;;;5098782;28;19926;-70
2023/05/05 02:40:58;;;;;;;2.55;1.52;;;6.80;1.00;;;;;;5099035;28;20043;-67
2023/05/05 02:43:32;;;;;;;1.98;1.73;;;6.80;1.00;;;;;;5089605;28;20062;-73
2023/05/05 02:46:08;;;;;;;3.45;1.80;;;6.90;1.00;;;;;;5090904;28;20465;-71
2023/05/05 02:48:40;;;;;;;3.40;2.00;;;6.90;1.00;;;;;;5102785;28;20034;-74
2023/05/05 02:51:14;;;;;;;2.10;1.92;;;6.90;1.00;;;;;;5122317;28;20184;-69
2023/05/05 02:53:46;;;;;;;1.63;1.45;;;6.90;1.00;;;;;;5152117;28;20468;-71
2023/05/05 02:56:52;;;;;;;1.95;1.77;;;6.80;1.00;;;;;;5125927;28;20267;-70
2023/05/05 02:59:39;;;;;;;1.77;1.63;;;6.90;1.00;;;;;;5098632;28;20047;-72
2023/05/05 03:02:30;;;;;;;2.38;1.88;;;6.80;1.00;;;;;;5132697;28;20042;-72
2023/05/05 03:05:33;;;;;;;1.48;1.38;;;6.80;1.00;;;;;;5093388;28;20058;-68
2023/05/05 03:08:13;;;;;;;2.95;2.65;;;6.80;1.00;;;;;;5120063;28;20041;-68
2023/05/05 03:11:04;;;;;;;3.35;1.83;;;6.80;1.00;;;;;;5082059;29;20051;-71
2023/05/05 03:13:42;;;;;;;2.17;1.98;;;6.70;1.00;;;;;;5098967;29;20043;-70
2023/05/05 03:16:16;;;;;;;2.88;2.65;;;6.70;1.00;;;;;;5080081;29;20031;-72
2023/05/05 03:18:53;;;;;;;2.45;1.67;;;6.80;1.00;;;;;;5099421;29;20250;-69
2023/05/05 03:21:25;;;;;;;2.55;2.33;;;6.90;1.00;;;;;;5098339;29;20039;-70
2023/05/05 03:23:57;;;;;;;2.10;1.50;;;7.00;1.00;;;;;;5081718;29;20051;-71
2023/05/05 03:26:29;;;;;;;2.63;1.80;;;7.00;1.00;;;;;;5098618;28;20054;-69
2023/05/05 03:29:00;;;;;;;2.20;2.00;;;7.00;1.00;;;;;;5110835;29;20051;-70
2023/05/05 03:31:37;;;;;;;1.65;1.30;;;7.00;1.00;;;;;;5132026;28;20055;-69
2023/05/05 03:34:17;;;;;;;2.22;1.70;;;7.10;1.00;;;;;;5134287;28;20043;-73
2023/05/05 03:36:51;;;;;;;4.03;1.48;;;7.10;1.00;;;;;;5134861;28;20057;-71
2023/05/05 03:39:22;;;;;;;2.25;1.83;;;7.10;1.00;;;;;;5117736;28;20055;-74
2023/05/05 03:41:56;;;;;;;2.13;1.77;;;7.10;1.00;;;;;;5117497;28;20274;-71
2023/05/05 03:44:30;;;;;;;2.40;2.08;;;7.10;1.00;;;;;;5117984;28;20181;-70
2023/05/05 03:47:10;;;;;;;2.78;2.35;;;7.10;1.00;;;;;;5100285;28;20452;-73
2023/05/05 03:49:43;;;;;;;3.53;1.92;;;7.10;1.00;;;;;;5118831;28;20412;-73
2023/05/05 03:52:19;;;;;;;3.45;2.47;;;7.10;1.00;;;;;;5085320;28;20060;-71
2023/05/05 03:54:53;;;;;;;2.20;1.80;;;7.10;1.00;;;;;;5085751;28;20452;-71
2023/05/05 03:57:26;;;;;;;;;;;7.20;1.00;;;;;;5100641;28;20071;-72
2023/05/05 04:00:00;;;;;;;7.70;2.03;;;7.20;1.00;;;;;;5084674;28;19924;-72
2023/05/05 04:02:37;;;;;;;1.65;1.55;;;7.30;1.00;;;;;;5121478;28;20041;-67
2023/05/05 04:05:21;;;;;;;2.17;1.98;;;7.40;1.00;;;;;;5126464;28;20056;-71
2023/05/05 04:07:53;;;;;;;;;;;7.50;1.00;;;;;;5134123;28;20038;-73
2023/05/05 04:10:29;;;;;;;2.33;2.08;;;7.60;1.00;;;;;;5134829;28;19910;-73
2023/05/05 04:13:01;;;;;;;2.60;1.90;;;7.80;1.00;;;;;;5133617;28;20385;-73
2023/05/05 04:15:35;;;;;;;1.65;1.55;;;8.00;1.00;;;;;;5085840;29;20149;-70
2023/05/05 04:18:09;;;;;;;1.63;1.52;;;8.20;1.00;;;;;;5131468;28;20053;-71
2023/05/05 04:20:43;;;;;;;4.05;2.40;;;8.50;1.00;;;;;;5131789;28;20039;-72
2023/05/05 04:23:17;;;;;;;3.88;2.00;;;8.70;1.00;;;;;;5117312;28;20046;-69
2023/05/05 04:25:51;;;;;;;;;;;9.00;1.00;;;;;;5100931;28;20047;-68
2023/05/05 04:28:23;;;;;;;4.72;2.00;;;9.30;1.00;;;;;;5117187;28;19918;-69
2023/05/05 04:31:03;;;;;;;2.08;1.90;;;9.40;1.00;;;;;;5109074;29;20115;-70
2023/05/05 04:33:41;;;;;;;4.60;2.50;;;9.70;1.00;;;;;;5130308;28;20061;-70
2023/05/05 04:36:14;;;;;;;2.30;1.98;;;9.80;1.00;;;;;;5116259;28;20444;-72
2023/05/05 04:38:45;;;;;;;2.58;2.30;;;10.00;1.00;;;;;;5133444;28;20035;-67
2023/05/05 04:41:16;;;;;;;3.80;2.60;;;10.10;1.00;;;;;;5116614;28;20346;-68
2023/05/05 04:43:54;;;;;;;2.38;1.83;;;10.30;1.00;;;;;;5133467;28;20492;-68
2023/05/05 04:46:28;;;;;;;3.63;2.40;;;10.60;1.00;;;;;;5115759;28;20034;-68
2023/05/05 04:49:00;;;;;;;2.80;2.40;;;10.70;1.00;;;;;;5117316;28;20419;-66
2023/05/05 04:51:39;;;;;;;6.97;2.40;;;10.80;1.00;;;;;;5133332;28;20547;-68
2023/05/05 04:54:16;;;;;;;6.60;2.50;;;10.80;1.00;;;;;;5117129;28;20038;-69
2023/05/05 04:56:48;;;;;;;2.35;1.95;;;10.70;1.00;;;;;;5116200;28;20031;-65
2023/05/05 04:59:20;;;;;;;4.05;2.50;;;10.70;1.00;;;;;;5127451;28;20053;-68
2023/05/05 05:01:51;;;;;;;2.83;2.53;;;10.70;1.00;;;;;;5105591;28;20339;-68
2023/05/05 05:04:26;;;;;;;4.35;2.92;;;11.00;1.00;;;;;;5109663;28;20061;-72
2023/05/05 05:07:00;;;;;;;3.22;2.60;;;11.20;1.00;;;;;;5136611;28;20067;-72
2023/05/05 05:09:35;;;;;;;6.28;3.28;;;11.30;1.00;;;;;;5151304;28;20050;-71
2023/05/05 05:12:08;;;;;;;4.30;3.15;;;11.60;1.00;;;;;;5153534;28;20046;-74
2023/05/05 05:14:42;;;;;;;2.63;2.35;;;11.90;1.00;;;;;;5130681;28;20051;-70
2023/05/05 05:17:16;;;;;;;3.33;2.70;;;12.00;1.00;;;;;;5097096;28;20047;-71
2023/05/05 05:19:50;;;;;;;3.35;3.03;;;12.00;1.00;;;;;;5137772;28;20326;-71
2023/05/05 05:22:21;;;;;;;3.67;3.05;;;12.30;1.00;;;;;;5130718;28;20060;-72
2023/05/05 05:24:53;;;;;;;5.00;3.35;;;12.70;1.00;;;;;;5122369;28;20053;-71
2023/05/05 05:27:25;;;;;;;4.00;2.38;;;12.60;1.00;;;;;;5136957;28;20372;-70
2023/05/05 05:29:57;;;;;;;7.28;2.95;;;12.70;1.00;;;;;;5116744;28;20049;-74
2023/05/05 05:32:33;;;;;;;3.83;2.65;;;12.60;1.00;;;;;;5130894;28;20060;-70
2023/05/05 05:35:07;;;;;;;2.72;2.22;;;12.40;1.00;;;;;;5175818;28;20234;-71
2023/05/05 05:37:41;;;;;;;3.67;2.67;;;12.30;1.00;;;;;;5148660;28;20049;-69
2023/05/05 05:40:18;;;;;;;2.75;2.47;;;12.40;1.00;;;;;;5113447;28;20042;-65
2023/05/05 05:42:50;;;;;;;3.60;2.67;;;12.50;1.00;;;;;;5115917;28;20046;-67
2023/05/05 05:45:23;;;;;;;2.78;2.28;;;12.90;1.00;;;;;;5169245;28;20065;-73
2023/05/05 05:47:54;;;;;;;3.60;2.80;;;13.50;1.00;;;;;;5113682;28;20550;-71
2023/05/05 05:50:27;;;;;;;3.65;2.75;;;13.50;1.00;;;;;;5127910;28;20154;-69
2023/05/05 05:53:00;;;;;;;5.30;3.65;;;13.50;1.00;;;;;;5147906;28;20045;-70
2023/05/05 05:55:32;;;;;;;5.17;3.33;;;13.60;1.00;;;;;;5095393;28;20612;-68
2023/05/05 05:58:03;;;;;;;4.38;3.63;;;14.20;1.00;;;;;;5143989;28;20052;-70
2023/05/05 06:00:37;;;;;;;6.20;3.45;;;14.70;1.00;;;;;;5106243;28;20049;-69
2023/05/05 06:03:11;;;;;;;4.45;3.80;;;15.10;1.00;;;;;;5160328;28;20251;-67
2023/05/05 06:05:45;;;;;;;5.20;3.58;;;15.40;1.00;;;;;;5136787;28;20049;-70
2023/05/05 06:08:18;;;;;;;6.50;4.50;;;15.90;1.00;;;;;;5154420;28;20041;-71
2023/05/05 06:10:52;;;;;;;4.53;3.60;;;16.60;1.00;;;;;;5107936;28;20045;-70
2023/05/05 06:13:23;;;;;;;3.95;3.55;;;17.00;1.00;;;;;;5138324;28;20246;-71
2023/05/05 06:15:55;;;;;;;3.92;3.45;;;17.30;1.00;;;;;;5147952;28;20512;-68
2023/05/05 06:18:26;;;;;;;5.97;4.22;;;17.90;1.00;;;;;;5143066;28;20417;-70
2023/05/05 06:21:01;;;;;;;9.38;3.95;;;18.40;1.00;;;;;;5133266;28;20045;-71
2023/05/05 06:23:38;;;;;;;9.55;4.50;;;18.60;1.00;;;;;;5134163;28;20038;-70
2023/05/05 06:26:12;;;;;;;4.00;3.28;;;18.40;1.00;;;;;;5150174;28;20034;-70
2023/05/05 06:28:44;;;;;;;5.55;4.20;;;18.70;1.00;;;;;;5108794;28;20551;-70
2023/05/05 06:31:19;;;;;;;4.97;3.78;;;18.70;1.00;;;;;;5158453;28;20055;-68
2023/05/05 06:33:51;;;;;;;;;;;18.90;1.00;;;;;;5140171;28;20050;-72
2023/05/05 06:36:22;;;;;;;3.95;3.28;;;18.90;1.00;;;;;;5151018;28;20249;-68
2023/05/05 06:38:54;;;;;;;6.07;4.07;;;19.00;1.00;;;;;;5129374;28;20065;-67
2023/05/05 06:41:25;;;;;;;4.47;4.03;;;19.30;1.00;;;;;;5135004;28;20034;-69
2023/05/05 06:43:56;;;;;;;5.32;4.00;;;19.30;1.00;;;;;;5129973;28;20141;-72
2023/05/05 06:46:33;;;;;;;8.32;4.25;;;19.30;1.00;;;;;;5116353;28;20096;-70
2023/05/05 06:49:07;;;;;;;6.90;5.20;;;19.20;1.00;;;;;;5102480;28;20273;-71
2023/05/05 06:51:41;;;;;;;6.18;4.80;;;19.00;1.00;;;;;;5122725;28;20331;-68
2023/05/05 06:54:18;;;;;;;4.65;4.15;;;18.80;1.00;;;;;;5110863;28;20362;-71
2023/05/05 06:56:49;;;;;;;8.10;4.75;;;18.30;1.00;;;;;;5128232;28;20398;-70
2023/05/05 06:59:26;;;;;;;6.63;4.75;;;18.20;1.00;;;;;;5110236;28;20503;-69
2023/05/05 07:02:04;;;;;;;7.10;4.20;;;18.00;1.00;;;;;;5133538;28;20034;-75
2023/05/05 07:04:37;;;;;;;8.57;4.90;;;18.00;1.00;;;;;;5146913;28;20103;-72
2023/05/05 07:07:20;;;;;;;5.95;5.00;;;18.50;1.00;;;;;;5153558;28;20044;-74
2023/05/05 07:09:54;;;;;;;5.70;5.10;;;18.70;1.00;;;;;;5123222;28;20299;-71
2023/05/05 07:12:29;;;;;;;7.63;5.55;;;18.70;1.00;;;;;;5155258;28;20036;-71
2023/05/05 07:15:03;;;;;;;6.82;4.78;;;18.60;1.00;;;;;;5154258;28;20251;-69
2023/05/05 07:17:38;;;;;;;5.82;4.35;;;19.10;1.00;;;;;;5127925;28;20397;-72
2023/05/05 07:20:10;;;;;;;8.35;4.90;;;19.50;1.00;;;;;;5153846;28;20040;-71
2023/05/05 07:22:44;;;;;;;7.53;4.97;;;19.60;1.00;;;;;;5120585;28;20305;-67
2023/05/05 07:25:16;;;;;;;6.63;4.68;;;20.10;1.00;;;;;;5136445;28;20034;-68
2023/05/05 07:27:50;;;;;;;6.55;4.53;;;20.00;1.00;;;;;;5154747;28;20046;-74
2023/05/05 07:30:25;;;;;;;;;;;20.00;1.00;;;;;;5149828;28;20049;-72
2023/05/05 07:32:57;;;;;;;5.97;4.68;;;20.30;1.00;;;;;;5134749;28;19928;-70
2023/05/05 07:35:31;;;;;;;4.82;4.25;;;20.40;1.00;;;;;;5151476;28;20041;-71
2023/05/05 07:38:05;;;;;;;7.90;4.80;;;20.50;1.00;;;;;;5131935;28;20304;-69
2023/05/05 07:40:36;;;;;;;6.22;4.03;;;20.60;1.00;;;;;;5124362;28;20042;-71
2023/05/05 07:43:11;;;;;;;4.63;4.00;;;20.90;1.00;;;;;;5136427;28;20052;-72
2023/05/05 07:45:45;;;;;;;;;;;20.90;1.00;;;;;;5117310;28;20219;-68
2023/05/05 07:48:18;;;;;;;5.03;3.35;;;20.40;1.00;;;;;;5120823;28;19935;-72
2023/05/05 07:50:51;;;;;;;5.95;4.43;;;20.30;1.00;;;;;;5121834;28;20372;-72
2023/05/05 07:53:25;;;;;;;4.90;4.28;;;20.50;1.00;;;;;;5153482;28;20056;-73
2023/05/05 07:56:02;;;;;;;;;;;20.50;1.00;;;;;;5137969;28;20212;-74
2023/05/05 07:58:33;;;;;;;6.00;4.97;;;20.90;1.00;;;;;;5124767;28;19920;-70
2023/05/05 08:01:11;;;;;;;5.40;4.20;;;20.90;1.00;;;;;;5127793;28;20340;-66
2023/05/05 08:03:48;;;;;;;4.82;3.72;;;21.10;1.00;;;;;;5100341;28;20373;-65
2023/05/05 08:06:22;;;;;;;5.18;4.20;;;21.00;1.00;;;;;;5084241;29;20047;-74
2023/05/05 08:08:58;;;;;;;5.45;4.10;;;21.10;1.00;;;;;;5081532;29;20043;-73
2023/05/05 08:11:33;;;;;;;7.63;4.38;;;21.00;1.00;;;;;;5065795;29;20049;-68
2023/05/05 08:14:06;;;;;;;5.38;4.40;;;20.60;1.00;;;;;;5064564;29;20043;-70
2023/05/05 08:16:41;;;;;;;4.45;4.05;;;21.00;1.00;;;;;;5093755;29;20027;-68
2023/05/05 08:19:13;;;;;;;5.82;4.60;;;21.10;1.00;;;;;;5100316;28;20114;-68
2023/05/05 08:21:44;;;;;;;4.75;3.90;;;21.20;1.00;;;;;;5115614;28;20039;-69
2023/05/05 08:24:17;;;;;;;7.60;4.40;;;21.30;1.00;;;;;;5134158;28;20209;-69
2023/05/05 08:26:49;;;;;;;5.28;3.95;;;21.30;1.00;;;;;;5132262;28;20035;-70
2023/05/05 08:29:20;;;;;;;4.88;4.03;;;21.30;1.00;;;;;;5116065;28;20038;-69
2023/05/05 08:31:54;;;;;;;5.05;3.85;;;21.60;1.00;;;;;;5112880;28;20036;-68
2023/05/05 08:34:25;;;;;;;3.75;3.45;;;21.90;1.00;;;;;;5099542;28;20037;-70
2023/05/05 08:36:57;;;;;;;4.45;3.80;;;22.40;1.00;;;;;;5132173;28;20262;-70
2023/05/05 08:39:33;;;;;;;5.38;4.30;;;22.10;1.00;;;;;;5115381;28;20030;-72
2023/05/05 08:42:11;;;;;;;5.20;4.30;;;22.20;1.00;;;;;;5115436;28;20047;-71
2023/05/05 08:44:43;;;;;;;5.82;3.75;;;22.20;1.00;;;;;;5112823;28;20069;-68
2023/05/05 08:47:15;;;;;;;5.95;3.92;;;22.40;1.00;;;;;;5129501;28;20038;-71
2023/05/05 08:49:54;;;;;;;4.28;3.53;;;22.70;1.00;;;;;;5100417;28;20038;-70
2023/05/05 08:52:32;;;;;;;6.53;4.18;;;22.90;1.00;;;;;;5132025;28;20034;-75
2023/05/05 08:55:25;;;;;;;5.85;4.60;;;23.00;1.00;;;;;;5132816;28;20259;-70
2023/05/05 08:58:03;;;;;;;6.40;4.68;;;23.60;1.00;;;;;;5111338;28;20061;-70
2023/05/05 09:00:37;;;;;;;7.05;3.80;;;23.70;1.00;;;;;;5095074;28;20215;-72
2023/05/05 09:03:12;;;;;;;4.78;3.80;;;23.40;1.00;;;;;;5132211;28;20039;-69
2023/05/05 09:05:46;;;;;;;;;;;22.70;1.00;;;;;;5073437;28;20046;-74
2023/05/05 09:08:23;;;;;;;6.80;4.60;;;22.80;1.00;;;;;;5082872;28;19910;-71
2023/05/05 09:10:59;;;;;;;5.85;4.40;;;23.10;1.00;;;;;;5132437;28;20035;-68
2023/05/05 09:13:33;;;;;;;7.28;5.68;;;23.40;1.00;;;;;;5104322;28;20305;-67
2023/05/05 09:16:05;;;;;;;6.20;5.35;;;23.50;1.00;;;;;;5095342;28;20042;-68
2023/05/05 09:18:39;;;;;;;6.72;4.68;;;23.10;1.00;;;;;;5065215;28;20373;-67
2023/05/05 09:21:23;;;;;;;6.57;5.13;;;23.10;1.00;;;;;;5100462;28;20035;-74
2023/05/05 09:24:11;;;;;;;6.25;4.40;;;23.30;1.00;;;;;;5114860;28;20511;-72
2023/05/05 09:26:49;;;;;;;6.55;4.40;;;23.20;1.00;;;;;;5114045;28;20347;-71
2023/05/05 09:29:25;;;;;;;8.00;4.82;;;23.20;1.00;;;;;;5087656;29;20043;-69
2023/05/05 09:32:15;;;;;;;5.72;4.35;;;23.60;1.00;;;;;;5097517;29;20046;-70
2023/05/05 09:35:02;;;;;;;5.47;4.50;;;23.90;1.00;;;;;;5107537;28;20068;-69
2023/05/05 09:37:33;;;;;;;6.15;4.30;;;24.00;1.00;;;;;;5097015;28;20477;-70
2023/05/05 09:40:11;;;;;;;4.93;4.00;;;23.60;1.00;;;;;;5126222;28;20730;-74
2023/05/05 09:42:46;;;;;;;7.43;5.35;;;23.50;1.00;;;;;;5108009;28;20073;-70
2023/05/05 09:45:26;;;;;;;7.82;4.95;;;23.60;1.00;;;;;;5098419;28;20030;-72
2023/05/05 09:47:58;;;;;;;7.55;5.40;;;23.70;1.00;;;;;;5083195;28;20061;-68
2023/05/05 09:50:44;;;;;;;7.60;5.28;;;24.10;1.00;;;;;;5132320;28;20047;-70
2023/05/05 09:53:15;;;;;;;4.80;4.18;;;23.40;1.00;;;;;;5125399;28;20046;-71
2023/05/05 09:55:58;;;;;;;5.43;4.28;;;23.90;1.00;;;;;;5083049;28;20039;-67
2023/05/05 09:58:35;;;;;;;8.02;4.22;;;24.30;1.00;;;;;;5101641;28;20031;-69
2023/05/05 10:01:21;;;;;;;6.68;4.43;;;24.30;1.00;;;;;;5113498;28;20131;-67
2023/05/05 10:04:01;;;;;;;4.38;3.70;;;24.10;1.00;;;;;;5091739;29;20185;-72
2023/05/05 10:06:50;;;;;;;5.40;4.05;;;24.80;1.00;;;;;;5072328;29;20257;-71
2023/05/05 10:09:26;;;;;;;6.18;3.92;;;25.50;1.00;;;;;;5104452;28;20049;-70
2023/05/05 10:12:04;;;;;;;4.88;3.85;;;25.10;1.00;;;;;;5081122;28;20193;-70
2023/05/05 10:14:35;;;;;;;8.95;4.05;;;25.30;1.00;;;;;;5099624;28;20130;-68
2023/05/05 10:17:11;;;;;;;4.47;3.50;;;26.20;1.00;;;;;;5090938;29;20208;-69
2023/05/05 10:19:46;;;;;;;5.22;3.80;;;26.60;1.00;;;;;;5077719;29;20039;-70
2023/05/05 10:22:22;;;;;;;5.47;4.00;;;27.20;1.00;;;;;;5094302;29;20031;-69
2023/05/05 10:25:02;;;;;;;6.18;3.80;;;27.70;1.00;;;;;;5104149;28;20127;-70
2023/05/05 10:27:43;;;;;;;3.65;3.08;;;27.40;1.00;;;;;;5097716;28;20057;-72
2023/05/05 10:30:35;;;;;;;6.00;4.18;;;28.10;1.00;;;;;;5117100;28;20107;-67
2023/05/05 10:33:22;;;;;;;4.40;3.45;;;27.10;1.00;;;;;;5111013;28;20358;-69
2023/05/05 10:36:00;;;;;;;5.57;3.53;;;27.50;1.00;;;;;;5092759;28;20326;-67
2023/05/05 10:38:37;;;;;;;5.63;3.47;;;27.60;1.00;;;;;;5080942;29;20047;-68
2023/05/05 10:41:10;;;;;;;5.45;4.32;;;28.60;1.00;;;;;;5114898;28;20179;-68
2023/05/05 10:43:43;;;;;;;5.90;3.53;;;29.30;1.00;;;;;;5088908;29;20330;-69
2023/05/05 10:46:14;;;;;;;5.35;3.55;;;29.90;1.00;;;;;;5072018;29;20316;-70
2023/05/05 10:49:03;;;;;;;4.60;3.33;;;30.80;1.00;;;;;;5092081;28;20047;-67
2023/05/05 10:51:55;;;;;;;5.57;3.78;;;31.60;1.00;;;;;;5110679;28;20458;-67
2023/05/05 10:54:39;;;;;;;4.57;3.65;;;31.90;1.00;;;;;;5104181;28;20047;-69
2023/05/05 10:57:15;;;;;;;6.95;4.00;;;32.00;1.00;;;;;;5095415;28;20332;-68
2023/05/05 10:59:47;;;;;;;16.70;4.10;;;31.20;1.00;;;;;;5088458;28;20051;-68
2023/05/05 11:02:27;;;;;;;6.05;3.85;;;30.90;1.00;;;;;;5126770;28;20343;-69
2023/05/05 11:05:16;;;;;;;4.53;3.40;;;32.00;1.00;;;;;;5084026;28;20530;-73
2023/05/05 11:07:50;;;;;;;3.90;2.85;;;32.60;1.00;;;;;;5102426;28;20027;-72
2023/05/05 11:10:22;;;;;;;4.85;3.85;;;32.60;1.00;;;;;;5077186;29;20256;-70
2023/05/05 11:13:01;;;;;;;4.75;3.45;;;32.30;1.00;;;;;;5113647;28;20312;-69
2023/05/05 11:15:36;;;;;;;7.00;3.53;;;32.00;1.00;;;;;;5094267;28;20042;-72
2023/05/05 11:18:34;;;;;;;5.13;3.78;;;32.00;1.00;;;;;;5129754;28;20062;-70
2023/05/05 11:21:14;;;;;;;3.88;3.13;;;32.20;1.00;;;;;;5103902;28;20147;-69
2023/05/05 11:23:50;;;;;;;4.55;3.10;;;32.40;1.00;;;;;;5095183;28;20034;-67
2023/05/05 11:26:51;;;;;;;3.20;2.70;;;33.70;1.00;;;;;;5102331;28;20035;-68
2023/05/05 11:29:23;;;;;;;3.33;2.92;;;33.80;1.00;;;;;;5088101;28;20050;-67
2023/05/05 11:32:17;;;;;;;4.05;2.92;;;34.30;1.00;;;;;;5113986;28;20027;-69
2023/05/05 11:34:51;;;;;;;3.45;3.13;;;35.10;1.00;;;;;;5099215;28;20449;-70
2023/05/05 11:37:25;;;;;;;4.70;3.55;;;34.30;1.00;;;;;;5075104;28;20100;-69
2023/05/05 11:40:31;;;;;;;4.28;3.13;;;34.20;1.00;;;;;;5073899;28;20749;-70
2023/05/05 11:43:06;;;;;;;4.22;3.00;;;34.30;1.00;;;;;;5113663;28;20030;-70
2023/05/05 11:45:40;;;;;;;4.55;2.88;;;33.30;1.00;;;;;;5089664;28;20043;-70
2023/05/05 11:48:25;;;;;;;3.17;2.72;;;33.60;1.00;;;;;;5115571;28;20053;-73
2023/05/05 11:51:02;;;;;;;3.97;2.95;;;34.50;1.00;;;;;;5096681;28;20054;-69
2023/05/05 11:53:36;;;;;;;3.38;2.63;;;34.80;1.00;;;;;;5115451;28;20377;-71
2023/05/05 11:56:17;;;;;;;4.07;2.90;;;34.50;1.00;;;;;;5088485;28;20047;-70
2023/05/05 11:59:09;;;;;;;5.47;3.47;;;35.60;1.00;;;;;;5129363;28;20039;-69
2023/05/05 12:01:46;;;;;;;4.70;2.95;;;35.90;1.00;;;;;;5130814;28;20601;-72
2023/05/05 12:04:18;;;;;;;3.58;2.97;;;36.10;1.00;;;;;;5075226;28;20268;-71
2023/05/05 12:06:54;;;;;;;4.80;2.97;;;35.80;1.00;;;;;;5142568;28;20518;-72
2023/05/05 12:09:31;;;;;;;3.85;2.72;;;35.00;1.00;;;;;;5097311;28;20053;-71
2023/05/05 12:12:06;;;;;;;2.83;2.53;;;34.00;1.00;;;;;;5098331;28;20665;-71
2023/05/05 12:15:05;;;;;;;3.60;2.40;;;33.70;1.00;;;;;;5080331;29;20047;-70
2023/05/05 12:17:41;;;;;;;2.90;2.47;;;34.80;1.00;;;;;;5091384;28;20049;-69
2023/05/05 12:20:12;;;;;;;2.22;2.03;;;36.00;1.00;;;;;;5125354;28;20061;-67
2023/05/05 12:22:44;;;;;;;5.22;2.00;;;36.70;1.00;;;;;;5113645;28;20054;-72
2023/05/05 12:25:19;;;;;;;4.30;2.53;;;37.10;1.00;;;;;;5114668;28;20053;-69
2023/05/05 12:27:58;;;;;;;4.82;2.08;;;37.20;1.00;;;;;;5099019;28;20034;-71
2023/05/05 12:30:32;;;;;;;2.55;2.05;;;37.70;1.00;;;;;;5079337;28;20061;-73
2023/05/05 12:33:05;;;;;;;3.08;2.30;;;37.30;1.00;;;;;;5127885;28;20043;-73
2023/05/05 12:35:40;;;;;;;;;;;35.40;1.00;;;;;;5131723;28;20035;-70
2023/05/05 12:38:18;;;;;;;2.10;1.88;;;35.10;1.00;;;;;;5083011;28;19917;-71
2023/05/05 12:40:54;;;;;;;2.45;2.25;;;35.90;1.00;;;;;;5120778;28;20251;-71
2023/05/05 12:43:33;;;;;;;2.15;1.95;;;36.40;1.00;;;;;;5115092;28;20050;-69
2023/05/05 12:46:14;;;;;;;2.63;1.92;;;36.00;1.00;;;;;;5079913;28;20386;-66
2023/05/05 12:49:04;;;;;;;2.40;1.92;;;35.70;1.00;;;;;;5114555;28;20038;-69
2023/05/05 12:51:36;;;;;;;2.25;1.63;;;35.80;1.00;;;;;;5102857;28;20050;-71
2023/05/05 12:54:10;;;;;;;3.45;2.15;;;34.90;1.00;;;;;;5083430;28;20073;-69
2023/05/05 12:56:44;;;;;;;;;;;36.00;1.00;;;;;;5130371;28;20034;-69
2023/05/05 12:59:34;;;;;;;2.50;2.30;;;36.90;1.00;;;;;;5095884;28;19928;-70
2023/05/05 13:02:16;;;;;;;2.08;1.88;;;37.00;1.00;;;;;;5093276;28;20042;-68
2023/05/05 13:04:56;;;;;;;2.70;2.08;;;36.00;1.00;;;;;;5087099;28;20054;-72
2023/05/05 13:07:31;;;;;;;2.17;1.98;;;35.00;1.00;;;;;;5080604;28;20042;-72
2023/05/05 13:10:09;;;;;;;4.00;2.63;;;35.50;1.00;;;;;;5123987;28;20038;-69
2023/05/05 13:12:42;;;;;;;4.70;2.20;;;35.80;1.00;;;;;;5129830;28;20035;-71
2023/05/05 13:15:16;;;;;;;2.38;2.17;;;36.00;1.00;;;;;;5066400;29;20526;-73
2023/05/05 13:18:02;;;;;;;4.65;2.55;;;37.00;1.00;;;;;;5125544;28;20677;-72
2023/05/05 13:20:54;;;;;;;2.83;1.80;;;37.60;1.00;;;;;;5111608;28;20061;-73
2023/05/05 13:27:36;;;;;;;2.22;2.03;;;38.30;1.00;;;;;;5130756;28;20041;-71
2023/05/05 13:30:12;;;;;;;1.73;1.63;;;37.10;1.00;;;;;;5082579;28;20061;-72
2023/05/05 13:32:43;;;;;;;2.03;1.83;;;36.50;1.00;;;;;;5081143;28;20042;-73
2023/05/05 13:35:18;;;;;;;2.65;2.10;;;36.00;1.00;;;;;;5114816;28;20035;-70
2023/05/05 13:37:49;;;;;;;2.10;1.65;;;36.40;1.00;;;;;;5084820;28;20039;-74
2023/05/05 13:40:23;;;;;;;3.55;2.03;;;36.50;1.00;;;;;;5078010;29;20059;-69
2023/05/05 13:42:55;;;;;;;1.70;1.60;;;37.10;1.00;;;;;;5121350;28;20052;-72
2023/05/05 13:45:28;;;;;;;1.75;1.65;;;36.40;1.00;;;;;;5125786;28;20026;-72
2023/05/05 13:48:03;;;;;;;1.65;1.52;;;34.30;1.00;;;;;;5096066;28;20233;-70
2023/05/05 13:50:40;;;;;;;2.65;1.67;;;35.50;1.00;;;;;;5077862;29;20043;-70
2023/05/05 13:53:16;;;;;;;1.83;1.67;;;36.70;1.00;;;;;;5129904;28;20038;-69
2023/05/05 13:55:47;;;;;;;1.58;1.48;;;37.40;1.00;;;;;;5113772;28;20053;-72
2023/05/05 13:58:21;;;;;;;2.00;1.80;;;37.20;1.00;;;;;;5105345;28;20619;-69